sensor_id;sensor_type;location;lat;lon;timestamp;P1;durP1;ratioP1;P2;durP2;ratioP2
10383;SDS011;5238;43.508;4.980;2023-03-01T00:01:11;11.10;;;7.75;;
10383;SDS011;5238;43.508;4.980;2023-03-01T00:03:40;9.07;;;7.63;;
10383;SDS011;5238;43.508;4.980;2023-03-01T00:06:14;10.68;;;7.72;;
10383;SDS011;5238;43.508;4.980;2023-03-01T00:08:42;9.23;;;7.75;;
10383;SDS011;5238;43.508;4.980;2023-03-01T00:11:12;10.88;;;7.47;;
10383;SDS011;5238;43.508;4.980;2023-03-01T00:13:44;7.97;;;7.20;;
10383;SDS011;5238;43.508;4.980;2023-03-01T00:16:13;8.75;;;7.85;;
10383;SDS011;5238;43.508;4.980;2023-03-01T00:18:43;9.80;;;8.20;;
10383;SDS011;5238;43.508;4.980;2023-03-01T00:21:12;11.65;;;8.05;;
10383;SDS011;5238;43.508;4.980;2023-03-01T00:23:40;8.73;;;7.45;;
10383;SDS011;5238;43.508;4.980;2023-03-01T00:26:09;11.10;;;7.53;;
10383;SDS011;5238;43.508;4.980;2023-03-01T00:28:40;10.70;;;7.93;;
10383;SDS011;5238;43.508;4.980;2023-03-01T00:31:34;9.65;;;7.93;;
10383;SDS011;5238;43.508;4.980;2023-03-01T00:34:04;10.95;;;7.85;;
10383;SDS011;5238;43.508;4.980;2023-03-01T00:36:34;9.50;;;7.85;;
10383;SDS011;5238;43.508;4.980;2023-03-01T00:39:04;9.55;;;7.70;;
10383;SDS011;5238;43.508;4.980;2023-03-01T00:41:41;9.40;;;7.50;;
10383;SDS011;5238;43.508;4.980;2023-03-01T00:44:20;9.95;;;7.93;;
10383;SDS011;5238;43.508;4.980;2023-03-01T00:46:53;11.07;;;8.07;;
10383;SDS011;5238;43.508;4.980;2023-03-01T00:49:24;9.00;;;7.93;;
10383;SDS011;5238;43.508;4.980;2023-03-01T00:51:53;9.45;;;8.40;;
10383;SDS011;5238;43.508;4.980;2023-03-01T00:54:24;10.02;;;8.35;;
10383;SDS011;5238;43.508;4.980;2023-03-01T00:56:51;10.02;;;7.53;;
10383;SDS011;5238;43.508;4.980;2023-03-01T00:59:18;10.55;;;8.40;;
10383;SDS011;5238;43.508;4.980;2023-03-01T01:01:49;8.65;;;7.72;;
10383;SDS011;5238;43.508;4.980;2023-03-01T01:04:17;12.02;;;8.25;;
10383;SDS011;5238;43.508;4.980;2023-03-01T01:06:45;9.98;;;8.15;;
10383;SDS011;5238;43.508;4.980;2023-03-01T01:09:14;9.82;;;8.15;;
10383;SDS011;5238;43.508;4.980;2023-03-01T01:11:51;8.63;;;7.78;;
10383;SDS011;5238;43.508;4.980;2023-03-01T01:14:24;9.13;;;7.43;;
10383;SDS011;5238;43.508;4.980;2023-03-01T01:16:59;9.75;;;7.78;;
10383;SDS011;5238;43.508;4.980;2023-03-01T01:19:29;9.02;;;8.13;;
10383;SDS011;5238;43.508;4.980;2023-03-01T01:21:59;8.85;;;7.60;;
10383;SDS011;5238;43.508;4.980;2023-03-01T01:24:29;12.43;;;8.55;;
10383;SDS011;5238;43.508;4.980;2023-03-01T01:27:04;10.48;;;8.32;;
10383;SDS011;5238;43.508;4.980;2023-03-01T01:29:37;11.02;;;8.60;;
10383;SDS011;5238;43.508;4.980;2023-03-01T01:32:12;10.73;;;8.30;;
10383;SDS011;5238;43.508;4.980;2023-03-01T01:34:44;9.57;;;7.95;;
10383;SDS011;5238;43.508;4.980;2023-03-01T01:37:19;10.45;;;8.13;;
10383;SDS011;5238;43.508;4.980;2023-03-01T01:39:54;10.88;;;8.25;;
10383;SDS011;5238;43.508;4.980;2023-03-01T01:42:30;10.20;;;8.15;;
10383;SDS011;5238;43.508;4.980;2023-03-01T01:47:59;12.00;;;8.98;;
10383;SDS011;5238;43.508;4.980;2023-03-01T01:50:38;14.15;;;8.25;;
10383;SDS011;5238;43.508;4.980;2023-03-01T01:53:08;11.20;;;8.82;;
10383;SDS011;5238;43.508;4.980;2023-03-01T01:55:54;10.32;;;8.57;;
10383;SDS011;5238;43.508;4.980;2023-03-01T01:58:25;8.52;;;7.57;;
10383;SDS011;5238;43.508;4.980;2023-03-01T02:01:06;10.75;;;8.85;;
10383;SDS011;5238;43.508;4.980;2023-03-01T02:03:46;9.90;;;8.57;;
10383;SDS011;5238;43.508;4.980;2023-03-01T02:06:17;10.68;;;8.20;;
10383;SDS011;5238;43.508;4.980;2023-03-01T02:08:54;11.80;;;8.95;;
10383;SDS011;5238;43.508;4.980;2023-03-01T02:11:33;11.80;;;9.35;;
10383;SDS011;5238;43.508;4.980;2023-03-01T02:14:04;10.07;;;8.80;;
10383;SDS011;5238;43.508;4.980;2023-03-01T02:16:35;14.65;;;9.70;;
10383;SDS011;5238;43.508;4.980;2023-03-01T02:19:31;10.15;;;7.90;;
10383;SDS011;5238;43.508;4.980;2023-03-01T02:22:13;13.52;;;8.43;;
10383;SDS011;5238;43.508;4.980;2023-03-01T02:24:58;10.63;;;8.82;;
10383;SDS011;5238;43.508;4.980;2023-03-01T02:27:38;10.13;;;8.10;;
10383;SDS011;5238;43.508;4.980;2023-03-01T02:30:12;11.75;;;8.25;;
10383;SDS011;5238;43.508;4.980;2023-03-01T02:32:46;10.85;;;9.05;;
10383;SDS011;5238;43.508;4.980;2023-03-01T02:35:39;12.35;;;8.65;;
10383;SDS011;5238;43.508;4.980;2023-03-01T02:38:07;10.55;;;9.02;;
10383;SDS011;5238;43.508;4.980;2023-03-01T02:40:46;12.55;;;8.93;;
10383;SDS011;5238;43.508;4.980;2023-03-01T02:43:17;11.68;;;9.40;;
10383;SDS011;5238;43.508;4.980;2023-03-01T02:45:51;12.15;;;9.10;;
10383;SDS011;5238;43.508;4.980;2023-03-01T02:48:27;9.82;;;8.40;;
10383;SDS011;5238;43.508;4.980;2023-03-01T02:51:00;12.32;;;8.77;;
10383;SDS011;5238;43.508;4.980;2023-03-01T02:53:34;12.20;;;8.77;;
10383;SDS011;5238;43.508;4.980;2023-03-01T02:56:13;11.07;;;8.93;;
10383;SDS011;5238;43.508;4.980;2023-03-01T02:58:43;10.95;;;8.85;;
10383;SDS011;5238;43.508;4.980;2023-03-01T03:01:18;11.60;;;9.07;;
10383;SDS011;5238;43.508;4.980;2023-03-01T03:04:01;12.13;;;9.40;;
10383;SDS011;5238;43.508;4.980;2023-03-01T03:06:37;11.45;;;8.73;;
10383;SDS011;5238;43.508;4.980;2023-03-01T03:09:06;16.27;;;10.27;;
10383;SDS011;5238;43.508;4.980;2023-03-01T03:11:50;11.35;;;9.23;;
10383;SDS011;5238;43.508;4.980;2023-03-01T03:14:21;11.60;;;8.80;;
10383;SDS011;5238;43.508;4.980;2023-03-01T03:16:52;12.70;;;9.00;;
10383;SDS011;5238;43.508;4.980;2023-03-01T03:19:24;11.70;;;9.02;;
10383;SDS011;5238;43.508;4.980;2023-03-01T03:21:53;11.23;;;8.82;;
10383;SDS011;5238;43.508;4.980;2023-03-01T03:24:24;10.32;;;9.15;;
10383;SDS011;5238;43.508;4.980;2023-03-01T03:27:03;11.90;;;9.75;;
10383;SDS011;5238;43.508;4.980;2023-03-01T03:29:38;10.35;;;8.35;;
10383;SDS011;5238;43.508;4.980;2023-03-01T03:32:12;12.88;;;9.07;;
10383;SDS011;5238;43.508;4.980;2023-03-01T03:34:47;12.45;;;9.68;;
10383;SDS011;5238;43.508;4.980;2023-03-01T03:37:15;12.93;;;9.40;;
10383;SDS011;5238;43.508;4.980;2023-03-01T03:40:00;10.25;;;8.95;;
10383;SDS011;5238;43.508;4.980;2023-03-01T03:42:40;12.15;;;9.43;;
10383;SDS011;5238;43.508;4.980;2023-03-01T03:45:11;13.40;;;9.93;;
10383;SDS011;5238;43.508;4.980;2023-03-01T03:47:43;12.63;;;9.70;;
10383;SDS011;5238;43.508;4.980;2023-03-01T03:50:12;11.75;;;9.52;;
10383;SDS011;5238;43.508;4.980;2023-03-01T03:52:40;10.88;;;9.55;;
10383;SDS011;5238;43.508;4.980;2023-03-01T03:55:08;14.10;;;10.55;;
10383;SDS011;5238;43.508;4.980;2023-03-01T03:57:37;11.73;;;9.77;;
10383;SDS011;5238;43.508;4.980;2023-03-01T04:00:05;13.57;;;9.95;;
10383;SDS011;5238;43.508;4.980;2023-03-01T04:02:38;11.95;;;9.98;;
10383;SDS011;5238;43.508;4.980;2023-03-01T04:05:08;10.90;;;8.52;;
10383;SDS011;5238;43.508;4.980;2023-03-01T04:07:51;12.73;;;10.35;;
10383;SDS011;5238;43.508;4.980;2023-03-01T04:10:37;15.05;;;10.48;;
10383;SDS011;5238;43.508;4.980;2023-03-01T04:13:09;11.95;;;10.15;;
10383;SDS011;5238;43.508;4.980;2023-03-01T04:15:46;14.07;;;9.93;;
10383;SDS011;5238;43.508;4.980;2023-03-01T04:18:29;12.30;;;9.45;;
10383;SDS011;5238;43.508;4.980;2023-03-01T04:21:03;13.20;;;10.45;;
10383;SDS011;5238;43.508;4.980;2023-03-01T04:23:30;11.50;;;10.00;;
10383;SDS011;5238;43.508;4.980;2023-03-01T04:25:58;12.30;;;9.75;;
10383;SDS011;5238;43.508;4.980;2023-03-01T04:28:28;13.27;;;10.05;;
10383;SDS011;5238;43.508;4.980;2023-03-01T04:31:02;13.63;;;9.75;;
10383;SDS011;5238;43.508;4.980;2023-03-01T04:33:38;12.02;;;10.02;;
10383;SDS011;5238;43.508;4.980;2023-03-01T04:36:09;13.88;;;10.60;;
10383;SDS011;5238;43.508;4.980;2023-03-01T04:38:37;13.32;;;10.90;;
10383;SDS011;5238;43.508;4.980;2023-03-01T04:41:13;12.90;;;10.57;;
10383;SDS011;5238;43.508;4.980;2023-03-01T04:43:42;11.43;;;10.15;;
10383;SDS011;5238;43.508;4.980;2023-03-01T04:46:14;14.45;;;10.82;;
10383;SDS011;5238;43.508;4.980;2023-03-01T04:48:51;13.98;;;10.60;;
10383;SDS011;5238;43.508;4.980;2023-03-01T04:51:27;14.23;;;10.60;;
10383;SDS011;5238;43.508;4.980;2023-03-01T04:53:57;11.82;;;10.15;;
10383;SDS011;5238;43.508;4.980;2023-03-01T04:56:29;14.27;;;11.02;;
10383;SDS011;5238;43.508;4.980;2023-03-01T04:59:00;13.75;;;10.95;;
10383;SDS011;5238;43.508;4.980;2023-03-01T05:01:41;14.65;;;10.80;;
10383;SDS011;5238;43.508;4.980;2023-03-01T05:04:18;14.40;;;10.77;;
10383;SDS011;5238;43.508;4.980;2023-03-01T05:06:49;13.80;;;11.25;;
10383;SDS011;5238;43.508;4.980;2023-03-01T05:09:18;13.65;;;11.10;;
10383;SDS011;5238;43.508;4.980;2023-03-01T05:11:47;16.20;;;11.93;;
10383;SDS011;5238;43.508;4.980;2023-03-01T05:14:19;14.60;;;11.55;;
10383;SDS011;5238;43.508;4.980;2023-03-01T05:16:50;15.38;;;11.32;;
10383;SDS011;5238;43.508;4.980;2023-03-01T05:19:18;13.95;;;11.55;;
10383;SDS011;5238;43.508;4.980;2023-03-01T05:21:49;17.00;;;11.40;;
10383;SDS011;5238;43.508;4.980;2023-03-01T05:24:29;15.63;;;11.50;;
10383;SDS011;5238;43.508;4.980;2023-03-01T05:27:07;14.27;;;11.18;;
10383;SDS011;5238;43.508;4.980;2023-03-01T05:29:38;14.65;;;11.40;;
10383;SDS011;5238;43.508;4.980;2023-03-01T05:32:14;14.18;;;11.02;;
10383;SDS011;5238;43.508;4.980;2023-03-01T05:34:44;15.80;;;12.13;;
10383;SDS011;5238;43.508;4.980;2023-03-01T05:37:22;14.13;;;11.00;;
10383;SDS011;5238;43.508;4.980;2023-03-01T05:39:51;12.93;;;11.18;;
10383;SDS011;5238;43.508;4.980;2023-03-01T05:42:18;13.98;;;10.80;;
10383;SDS011;5238;43.508;4.980;2023-03-01T05:44:45;17.25;;;11.38;;
10383;SDS011;5238;43.508;4.980;2023-03-01T05:47:14;14.48;;;11.32;;
10383;SDS011;5238;43.508;4.980;2023-03-01T05:49:46;15.63;;;11.38;;
10383;SDS011;5238;43.508;4.980;2023-03-01T05:52:15;15.07;;;11.65;;
10383;SDS011;5238;43.508;4.980;2023-03-01T05:54:45;14.93;;;11.70;;
10383;SDS011;5238;43.508;4.980;2023-03-01T05:57:16;12.73;;;10.48;;
10383;SDS011;5238;43.508;4.980;2023-03-01T05:59:48;16.05;;;10.93;;
10383;SDS011;5238;43.508;4.980;2023-03-01T06:02:19;13.93;;;11.57;;
10383;SDS011;5238;43.508;4.980;2023-03-01T06:04:47;14.68;;;10.98;;
10383;SDS011;5238;43.508;4.980;2023-03-01T06:07:15;13.75;;;10.75;;
10383;SDS011;5238;43.508;4.980;2023-03-01T06:09:52;15.20;;;11.23;;
10383;SDS011;5238;43.508;4.980;2023-03-01T06:12:19;13.82;;;11.02;;
10383;SDS011;5238;43.508;4.980;2023-03-01T06:14:46;14.48;;;11.63;;
10383;SDS011;5238;43.508;4.980;2023-03-01T06:17:13;14.60;;;11.65;;
10383;SDS011;5238;43.508;4.980;2023-03-01T06:19:41;13.13;;;10.73;;
10383;SDS011;5238;43.508;4.980;2023-03-01T06:22:08;14.82;;;11.77;;
10383;SDS011;5238;43.508;4.980;2023-03-01T06:24:35;15.13;;;11.13;;
10383;SDS011;5238;43.508;4.980;2023-03-01T06:27:03;16.08;;;11.30;;
10383;SDS011;5238;43.508;4.980;2023-03-01T06:29:31;15.45;;;11.50;;
10383;SDS011;5238;43.508;4.980;2023-03-01T06:31:57;16.38;;;11.57;;
10383;SDS011;5238;43.508;4.980;2023-03-01T06:34:25;14.98;;;11.45;;
10383;SDS011;5238;43.508;4.980;2023-03-01T06:36:53;14.82;;;12.02;;
10383;SDS011;5238;43.508;4.980;2023-03-01T06:39:35;19.38;;;12.65;;
10383;SDS011;5238;43.508;4.980;2023-03-01T06:42:18;14.90;;;11.55;;
10383;SDS011;5238;43.508;4.980;2023-03-01T06:44:46;16.65;;;11.98;;
10383;SDS011;5238;43.508;4.980;2023-03-01T06:47:21;15.98;;;11.88;;
10383;SDS011;5238;43.508;4.980;2023-03-01T06:49:48;18.38;;;12.40;;
10383;SDS011;5238;43.508;4.980;2023-03-01T06:52:15;14.43;;;11.20;;
10383;SDS011;5238;43.508;4.980;2023-03-01T06:54:42;16.58;;;11.18;;
10383;SDS011;5238;43.508;4.980;2023-03-01T06:57:09;13.70;;;11.43;;
10383;SDS011;5238;43.508;4.980;2023-03-01T06:59:37;15.52;;;11.32;;
10383;SDS011;5238;43.508;4.980;2023-03-01T07:02:04;14.50;;;11.85;;
10383;SDS011;5238;43.508;4.980;2023-03-01T07:04:31;20.02;;;12.77;;
10383;SDS011;5238;43.508;4.980;2023-03-01T07:06:59;17.15;;;12.00;;
10383;SDS011;5238;43.508;4.980;2023-03-01T07:09:26;17.98;;;11.90;;
10383;SDS011;5238;43.508;4.980;2023-03-01T07:11:53;16.70;;;12.48;;
10383;SDS011;5238;43.508;4.980;2023-03-01T07:14:20;15.57;;;11.57;;
10383;SDS011;5238;43.508;4.980;2023-03-01T07:16:51;15.25;;;11.52;;
10383;SDS011;5238;43.508;4.980;2023-03-01T07:19:18;16.35;;;11.63;;
10383;SDS011;5238;43.508;4.980;2023-03-01T07:21:47;15.98;;;11.40;;
10383;SDS011;5238;43.508;4.980;2023-03-01T07:24:17;14.23;;;11.40;;
10383;SDS011;5238;43.508;4.980;2023-03-01T07:26:47;15.25;;;11.88;;
10383;SDS011;5238;43.508;4.980;2023-03-01T07:29:23;15.23;;;11.82;;
10383;SDS011;5238;43.508;4.980;2023-03-01T07:31:51;16.23;;;12.30;;
10383;SDS011;5238;43.508;4.980;2023-03-01T07:34:19;15.77;;;11.95;;
10383;SDS011;5238;43.508;4.980;2023-03-01T07:36:46;16.80;;;11.68;;
10383;SDS011;5238;43.508;4.980;2023-03-01T07:39:13;17.35;;;11.90;;
10383;SDS011;5238;43.508;4.980;2023-03-01T07:41:40;18.42;;;11.98;;
10383;SDS011;5238;43.508;4.980;2023-03-01T07:44:07;17.60;;;12.52;;
10383;SDS011;5238;43.508;4.980;2023-03-01T07:46:35;15.77;;;11.75;;
10383;SDS011;5238;43.508;4.980;2023-03-01T07:49:04;15.77;;;12.43;;
10383;SDS011;5238;43.508;4.980;2023-03-01T07:51:31;14.93;;;12.80;;
10383;SDS011;5238;43.508;4.980;2023-03-01T07:53:58;15.43;;;12.38;;
10383;SDS011;5238;43.508;4.980;2023-03-01T07:56:25;15.65;;;12.10;;
10383;SDS011;5238;43.508;4.980;2023-03-01T07:58:52;17.40;;;12.43;;
10383;SDS011;5238;43.508;4.980;2023-03-01T08:01:19;16.90;;;12.93;;
10383;SDS011;5238;43.508;4.980;2023-03-01T08:03:47;18.50;;;13.25;;
10383;SDS011;5238;43.508;4.980;2023-03-01T08:06:16;19.55;;;13.32;;
10383;SDS011;5238;43.508;4.980;2023-03-01T08:08:44;14.82;;;11.43;;
10383;SDS011;5238;43.508;4.980;2023-03-01T08:11:12;15.98;;;11.73;;
10383;SDS011;5238;43.508;4.980;2023-03-01T08:13:40;15.18;;;11.75;;
10383;SDS011;5238;43.508;4.980;2023-03-01T08:16:09;15.68;;;12.38;;
10383;SDS011;5238;43.508;4.980;2023-03-01T08:18:37;14.55;;;11.98;;
10383;SDS011;5238;43.508;4.980;2023-03-01T08:21:05;14.52;;;12.18;;
10383;SDS011;5238;43.508;4.980;2023-03-01T08:23:35;15.82;;;12.82;;
10383;SDS011;5238;43.508;4.980;2023-03-01T08:26:03;15.23;;;12.30;;
10383;SDS011;5238;43.508;4.980;2023-03-01T08:28:31;14.95;;;12.27;;
10383;SDS011;5238;43.508;4.980;2023-03-01T08:30:58;16.33;;;12.65;;
10383;SDS011;5238;43.508;4.980;2023-03-01T08:33:25;14.70;;;12.15;;
10383;SDS011;5238;43.508;4.980;2023-03-01T08:35:52;14.57;;;12.25;;
10383;SDS011;5238;43.508;4.980;2023-03-01T08:38:27;15.20;;;12.18;;
10383;SDS011;5238;43.508;4.980;2023-03-01T08:40:56;16.00;;;13.43;;
10383;SDS011;5238;43.508;4.980;2023-03-01T08:43:26;14.25;;;12.05;;
10383;SDS011;5238;43.508;4.980;2023-03-01T08:45:53;15.68;;;12.77;;
10383;SDS011;5238;43.508;4.980;2023-03-01T08:48:20;13.45;;;12.05;;
10383;SDS011;5238;43.508;4.980;2023-03-01T08:50:47;14.85;;;12.80;;
10383;SDS011;5238;43.508;4.980;2023-03-01T08:53:15;15.27;;;11.90;;
10383;SDS011;5238;43.508;4.980;2023-03-01T08:55:49;17.55;;;12.05;;
10383;SDS011;5238;43.508;4.980;2023-03-01T08:58:25;13.40;;;11.65;;
10383;SDS011;5238;43.508;4.980;2023-03-01T09:00:55;15.20;;;12.57;;
10383;SDS011;5238;43.508;4.980;2023-03-01T09:03:23;14.40;;;11.73;;
10383;SDS011;5238;43.508;4.980;2023-03-01T09:05:59;14.48;;;12.10;;
10383;SDS011;5238;43.508;4.980;2023-03-01T09:08:30;16.00;;;12.88;;
10383;SDS011;5238;43.508;4.980;2023-03-01T09:11:07;15.95;;;12.85;;
10383;SDS011;5238;43.508;4.980;2023-03-01T09:13:43;14.68;;;11.55;;
10383;SDS011;5238;43.508;4.980;2023-03-01T09:16:19;16.20;;;13.10;;
10383;SDS011;5238;43.508;4.980;2023-03-01T09:18:51;15.20;;;12.05;;
10383;SDS011;5238;43.508;4.980;2023-03-01T09:21:23;15.68;;;11.60;;
10383;SDS011;5238;43.508;4.980;2023-03-01T09:23:57;16.23;;;12.73;;
10383;SDS011;5238;43.508;4.980;2023-03-01T09:26:30;15.57;;;12.35;;
10383;SDS011;5238;43.508;4.980;2023-03-01T09:29:01;14.82;;;12.38;;
10383;SDS011;5238;43.508;4.980;2023-03-01T09:31:31;15.52;;;13.10;;
10383;SDS011;5238;43.508;4.980;2023-03-01T09:34:06;16.20;;;13.15;;
10383;SDS011;5238;43.508;4.980;2023-03-01T09:36:34;17.00;;;13.65;;
10383;SDS011;5238;43.508;4.980;2023-03-01T09:39:04;15.27;;;12.82;;
10383;SDS011;5238;43.508;4.980;2023-03-01T09:41:42;15.60;;;12.95;;
10383;SDS011;5238;43.508;4.980;2023-03-01T09:44:32;15.75;;;12.52;;
10383;SDS011;5238;43.508;4.980;2023-03-01T09:47:12;16.02;;;12.85;;
10383;SDS011;5238;43.508;4.980;2023-03-01T09:49:45;15.70;;;13.82;;
10383;SDS011;5238;43.508;4.980;2023-03-01T09:52:34;15.20;;;12.27;;
10383;SDS011;5238;43.508;4.980;2023-03-01T09:55:08;16.48;;;13.73;;
10383;SDS011;5238;43.508;4.980;2023-03-01T09:57:41;15.63;;;12.50;;
10383;SDS011;5238;43.508;4.980;2023-03-01T10:00:21;14.98;;;12.40;;
10383;SDS011;5238;43.508;4.980;2023-03-01T10:02:57;15.00;;;13.13;;
10383;SDS011;5238;43.508;4.980;2023-03-01T10:08:26;14.18;;;12.45;;
10383;SDS011;5238;43.508;4.980;2023-03-01T10:13:55;16.27;;;13.35;;
10383;SDS011;5238;43.508;4.980;2023-03-01T10:16:36;16.15;;;13.23;;
10383;SDS011;5238;43.508;4.980;2023-03-01T10:19:15;14.35;;;12.85;;
10383;SDS011;5238;43.508;4.980;2023-03-01T10:22:05;15.60;;;13.35;;
10383;SDS011;5238;43.508;4.980;2023-03-01T10:24:48;16.08;;;12.88;;
10383;SDS011;5238;43.508;4.980;2023-03-01T10:27:25;15.25;;;13.55;;
10383;SDS011;5238;43.508;4.980;2023-03-01T10:30:02;15.05;;;13.45;;
10383;SDS011;5238;43.508;4.980;2023-03-01T10:32:47;18.08;;;14.23;;
10383;SDS011;5238;43.508;4.980;2023-03-01T10:35:19;15.80;;;12.80;;
10383;SDS011;5238;43.508;4.980;2023-03-01T10:37:58;17.13;;;14.05;;
10383;SDS011;5238;43.508;4.980;2023-03-01T10:40:31;15.77;;;13.45;;
10383;SDS011;5238;43.508;4.980;2023-03-01T10:43:02;16.42;;;13.63;;
10383;SDS011;5238;43.508;4.980;2023-03-01T10:45:34;16.67;;;14.15;;
10383;SDS011;5238;43.508;4.980;2023-03-01T10:48:14;17.08;;;13.85;;
10383;SDS011;5238;43.508;4.980;2023-03-01T10:50:46;16.17;;;13.27;;
10383;SDS011;5238;43.508;4.980;2023-03-01T10:53:29;16.92;;;13.27;;
10383;SDS011;5238;43.508;4.980;2023-03-01T10:56:05;16.13;;;13.20;;
10383;SDS011;5238;43.508;4.980;2023-03-01T10:58:38;13.82;;;12.40;;
10383;SDS011;5238;43.508;4.980;2023-03-01T11:01:24;15.30;;;13.63;;
10383;SDS011;5238;43.508;4.980;2023-03-01T11:04:09;15.98;;;13.82;;
10383;SDS011;5238;43.508;4.980;2023-03-01T11:06:39;16.25;;;13.25;;
10383;SDS011;5238;43.508;4.980;2023-03-01T11:09:14;15.23;;;13.18;;
10383;SDS011;5238;43.508;4.980;2023-03-01T11:11:42;15.95;;;13.85;;
10383;SDS011;5238;43.508;4.980;2023-03-01T11:14:13;16.08;;;13.93;;
10383;SDS011;5238;43.508;4.980;2023-03-01T11:16:44;17.30;;;14.02;;
10383;SDS011;5238;43.508;4.980;2023-03-01T11:19:19;15.55;;;13.57;;
10383;SDS011;5238;43.508;4.980;2023-03-01T11:21:51;15.68;;;13.60;;
10383;SDS011;5238;43.508;4.980;2023-03-01T11:24:33;16.35;;;14.02;;
10383;SDS011;5238;43.508;4.980;2023-03-01T11:27:12;20.67;;;15.95;;
10383;SDS011;5238;43.508;4.980;2023-03-01T11:29:48;21.10;;;15.20;;
10383;SDS011;5238;43.508;4.980;2023-03-01T11:32:28;21.00;;;15.30;;
10383;SDS011;5238;43.508;4.980;2023-03-01T11:37:53;19.60;;;16.17;;
10383;SDS011;5238;43.508;4.980;2023-03-01T11:40:27;22.95;;;17.50;;
10383;SDS011;5238;43.508;4.980;2023-03-01T11:43:15;20.70;;;16.77;;
10383;SDS011;5238;43.508;4.980;2023-03-01T11:45:54;21.88;;;16.60;;
10383;SDS011;5238;43.508;4.980;2023-03-01T11:48:50;22.40;;;15.65;;
10383;SDS011;5238;43.508;4.980;2023-03-01T11:51:32;21.40;;;16.65;;
10383;SDS011;5238;43.508;4.980;2023-03-01T11:54:20;17.17;;;14.98;;
10383;SDS011;5238;43.508;4.980;2023-03-01T11:57:00;16.70;;;14.85;;
10383;SDS011;5238;43.508;4.980;2023-03-01T12:02:40;17.55;;;14.90;;
10383;SDS011;5238;43.508;4.980;2023-03-01T12:05:42;21.55;;;15.63;;
10383;SDS011;5238;43.508;4.980;2023-03-01T12:08:40;19.15;;;14.18;;
10383;SDS011;5238;43.508;4.980;2023-03-01T12:11:13;17.17;;;14.32;;
10383;SDS011;5238;43.508;4.980;2023-03-01T12:14:12;18.77;;;15.95;;
10383;SDS011;5238;43.508;4.980;2023-03-01T12:16:58;18.30;;;14.90;;
10383;SDS011;5238;43.508;4.980;2023-03-01T12:19:45;19.73;;;14.73;;
10383;SDS011;5238;43.508;4.980;2023-03-01T12:22:30;20.42;;;15.25;;
10383;SDS011;5238;43.508;4.980;2023-03-01T12:25:04;19.30;;;14.35;;
10383;SDS011;5238;43.508;4.980;2023-03-01T12:27:50;17.27;;;14.23;;
10383;SDS011;5238;43.508;4.980;2023-03-01T12:30:49;18.02;;;13.55;;
10383;SDS011;5238;43.508;4.980;2023-03-01T12:33:33;19.10;;;14.30;;
10383;SDS011;5238;43.508;4.980;2023-03-01T12:36:26;17.60;;;14.15;;
10383;SDS011;5238;43.508;4.980;2023-03-01T12:39:17;15.43;;;12.85;;
10383;SDS011;5238;43.508;4.980;2023-03-01T12:42:02;15.50;;;13.65;;
10383;SDS011;5238;43.508;4.980;2023-03-01T12:44:41;16.92;;;13.00;;
10383;SDS011;5238;43.508;4.980;2023-03-01T12:47:46;16.52;;;13.10;;
10383;SDS011;5238;43.508;4.980;2023-03-01T12:50:26;14.90;;;13.27;;
10383;SDS011;5238;43.508;4.980;2023-03-01T12:53:19;19.63;;;15.30;;
10383;SDS011;5238;43.508;4.980;2023-03-01T12:55:54;19.63;;;14.60;;
10383;SDS011;5238;43.508;4.980;2023-03-01T12:58:29;17.23;;;14.52;;
10383;SDS011;5238;43.508;4.980;2023-03-01T13:01:12;17.88;;;14.60;;
10383;SDS011;5238;43.508;4.980;2023-03-01T13:07:11;20.27;;;15.60;;
10383;SDS011;5238;43.508;4.980;2023-03-01T13:10:00;20.50;;;15.48;;
10383;SDS011;5238;43.508;4.980;2023-03-01T13:12:46;18.30;;;14.40;;
10383;SDS011;5238;43.508;4.980;2023-03-01T13:15:31;18.02;;;14.65;;
10383;SDS011;5238;43.508;4.980;2023-03-01T13:18:00;18.17;;;14.93;;
10383;SDS011;5238;43.508;4.980;2023-03-01T13:20:31;18.75;;;15.18;;
10383;SDS011;5238;43.508;4.980;2023-03-01T13:23:24;17.73;;;15.05;;
10383;SDS011;5238;43.508;4.980;2023-03-01T13:26:00;16.50;;;14.25;;
10383;SDS011;5238;43.508;4.980;2023-03-01T13:28:36;18.90;;;14.73;;
10383;SDS011;5238;43.508;4.980;2023-03-01T13:31:55;19.77;;;15.48;;
10383;SDS011;5238;43.508;4.980;2023-03-01T13:37:35;18.85;;;15.38;;
10383;SDS011;5238;43.508;4.980;2023-03-01T13:43:27;19.70;;;13.48;;
10383;SDS011;5238;43.508;4.980;2023-03-01T13:45:59;18.40;;;14.75;;
10383;SDS011;5238;43.508;4.980;2023-03-01T13:48:30;17.95;;;14.02;;
10383;SDS011;5238;43.508;4.980;2023-03-01T13:51:03;17.15;;;14.35;;
10383;SDS011;5238;43.508;4.980;2023-03-01T13:53:35;18.52;;;14.52;;
10383;SDS011;5238;43.508;4.980;2023-03-01T13:56:19;17.30;;;14.20;;
10383;SDS011;5238;43.508;4.980;2023-03-01T13:58:58;20.50;;;14.32;;
10383;SDS011;5238;43.508;4.980;2023-03-01T14:01:32;16.90;;;14.10;;
10383;SDS011;5238;43.508;4.980;2023-03-01T14:04:14;14.75;;;13.15;;
10383;SDS011;5238;43.508;4.980;2023-03-01T14:06:51;15.23;;;12.77;;
10383;SDS011;5238;43.508;4.980;2023-03-01T14:09:18;17.42;;;13.13;;
10383;SDS011;5238;43.508;4.980;2023-03-01T14:12:02;15.70;;;13.80;;
10383;SDS011;5238;43.508;4.980;2023-03-01T14:14:52;16.42;;;12.95;;
10383;SDS011;5238;43.508;4.980;2023-03-01T14:20:16;20.40;;;15.18;;
10383;SDS011;5238;43.508;4.980;2023-03-01T14:22:45;19.55;;;14.23;;
10383;SDS011;5238;43.508;4.980;2023-03-01T14:28:33;16.38;;;13.63;;
10383;SDS011;5238;43.508;4.980;2023-03-01T14:31:30;15.43;;;13.32;;
10383;SDS011;5238;43.508;4.980;2023-03-01T14:34:16;15.85;;;13.25;;
10383;SDS011;5238;43.508;4.980;2023-03-01T14:36:47;14.35;;;12.27;;
10383;SDS011;5238;43.508;4.980;2023-03-01T14:39:19;17.85;;;14.13;;
10383;SDS011;5238;43.508;4.980;2023-03-01T14:41:50;16.73;;;14.13;;
10383;SDS011;5238;43.508;4.980;2023-03-01T14:44:20;19.92;;;15.10;;
10383;SDS011;5238;43.508;4.980;2023-03-01T14:46:57;17.77;;;13.77;;
10383;SDS011;5238;43.508;4.980;2023-03-01T14:49:31;19.95;;;13.38;;
10383;SDS011;5238;43.508;4.980;2023-03-01T14:52:00;19.25;;;14.40;;
10383;SDS011;5238;43.508;4.980;2023-03-01T14:54:32;19.38;;;13.85;;
10383;SDS011;5238;43.508;4.980;2023-03-01T14:57:06;15.15;;;13.27;;
10383;SDS011;5238;43.508;4.980;2023-03-01T14:59:40;19.15;;;13.35;;
10383;SDS011;5238;43.508;4.980;2023-03-01T15:02:19;18.27;;;13.45;;
10383;SDS011;5238;43.508;4.980;2023-03-01T15:04:57;17.85;;;13.80;;
10383;SDS011;5238;43.508;4.980;2023-03-01T15:10:34;18.52;;;13.75;;
10383;SDS011;5238;43.508;4.980;2023-03-01T15:13:11;17.85;;;14.23;;
10383;SDS011;5238;43.508;4.980;2023-03-01T15:15:40;16.55;;;12.68;;
10383;SDS011;5238;43.508;4.980;2023-03-01T15:18:15;18.83;;;13.48;;
10383;SDS011;5238;43.508;4.980;2023-03-01T15:20:45;15.68;;;12.35;;
10383;SDS011;5238;43.508;4.980;2023-03-01T15:23:19;14.95;;;12.23;;
10383;SDS011;5238;43.508;4.980;2023-03-01T15:25:49;16.48;;;13.30;;
10383;SDS011;5238;43.508;4.980;2023-03-01T15:28:22;14.75;;;12.70;;
10383;SDS011;5238;43.508;4.980;2023-03-01T15:30:52;17.48;;;13.52;;
10383;SDS011;5238;43.508;4.980;2023-03-01T15:33:30;16.73;;;13.25;;
10383;SDS011;5238;43.508;4.980;2023-03-01T15:38:58;18.95;;;13.75;;
10383;SDS011;5238;43.508;4.980;2023-03-01T15:41:28;17.83;;;13.13;;
10383;SDS011;5238;43.508;4.980;2023-03-01T15:43:57;17.60;;;13.70;;
10383;SDS011;5238;43.508;4.980;2023-03-01T15:46:26;19.77;;;14.63;;
10383;SDS011;5238;43.508;4.980;2023-03-01T15:48:57;27.13;;;19.73;;
10383;SDS011;5238;43.508;4.980;2023-03-01T15:51:29;26.88;;;17.83;;
10383;SDS011;5238;43.508;4.980;2023-03-01T15:54:01;17.33;;;13.77;;
10383;SDS011;5238;43.508;4.980;2023-03-01T15:56:30;18.80;;;14.45;;